METAR Data
IDs: Format: Raw Decoded Include TAF

Data at: 1711 UTC 18 Feb 2019

METAR for:KCID (Cedar Rapids/E Iowao, IA, US)
Text:KCID 181652Z 30008KT 10SM CLR M10/M12 A3040 RMK AO2 SLP308 T11001117
Temperature:-10.0°C ( 14°F)
Dewpoint:-11.7°C ( 11°F) [RH = 87%]
Pressure (altimeter):30.40 inches Hg (1029.5 mb) [Sea level pressure: 1030.8 mb]
Winds:from the WNW (300 degrees) at 9 MPH (8 knots; 4.1 m/s)
Visibility:10 or more sm (16+ km)
Ceiling:at least 12,000 feet AGL
Clouds:sky clear below 12,000 feet AGL